createdAt,value
2016-10-01T00:00:13.777Z,0
2016-10-01T00:01:13.809Z,0
2016-10-01T00:02:13.820Z,0
2016-10-01T00:03:13.828Z,0
2016-10-01T00:04:13.849Z,0
2016-10-01T00:05:13.867Z,0
2016-10-01T00:06:13.888Z,0
2016-10-01T00:07:13.906Z,0
2016-10-01T00:08:13.942Z,0
2016-10-01T00:09:13.950Z,0
2016-10-01T00:10:13.959Z,0
2016-10-01T00:11:13.974Z,0
2016-10-01T00:12:14.009Z,0
2016-10-01T00:13:14.018Z,0
2016-10-01T00:14:14.033Z,0
2016-10-01T00:15:14.049Z,0
2016-10-01T00:16:14.084Z,0
2016-10-01T00:17:14.092Z,0
2016-10-01T00:18:14.102Z,0
2016-10-01T00:19:14.142Z,0
2016-10-01T00:20:14.768Z,0
2016-10-01T00:21:14.172Z,0
2016-10-01T00:22:14.179Z,0
2016-10-01T00:23:14.207Z,0
2016-10-01T00:24:14.218Z,0
2016-10-01T00:25:14.260Z,0
2016-10-01T00:26:14.262Z,0
2016-10-01T00:27:14.278Z,0
2016-10-01T00:28:14.302Z,0
2016-10-01T00:29:14.312Z,0
2016-10-01T00:30:14.345Z,0
2016-10-01T00:31:14.360Z,0
2016-10-01T00:32:14.372Z,0
2016-10-01T00:33:14.395Z,0
2016-10-01T00:34:14.400Z,0
2016-10-01T00:35:14.437Z,0
2016-10-01T00:36:14.444Z,0
2016-10-01T00:37:14.453Z,0
2016-10-01T00:38:14.472Z,0
2016-10-01T00:39:14.496Z,0
2016-10-01T00:40:14.517Z,0
2016-10-01T00:41:14.539Z,0
2016-10-01T00:42:14.568Z,0
2016-10-01T00:43:14.598Z,0
2016-10-01T00:44:14.606Z,0
2016-10-01T00:45:14.608Z,0
2016-10-01T00:46:14.637Z,0
2016-10-01T00:47:14.640Z,0
2016-10-01T00:48:14.667Z,0
2016-10-01T00:49:14.688Z,0
2016-10-01T00:50:14.694Z,0
2016-10-01T00:51:14.707Z,0
2016-10-01T00:52:14.741Z,0
2016-10-01T00:53:14.767Z,0
2016-10-01T00:54:14.769Z,0
2016-10-01T00:55:14.784Z,0
2016-10-01T00:56:14.823Z,0
2016-10-01T00:57:14.829Z,0
2016-10-01T00:58:14.857Z,0
2016-10-01T00:59:14.858Z,0
2016-10-01T01:00:14.880Z,0
2016-10-01T01:01:14.914Z,0
2016-10-01T01:02:14.929Z,0
2016-10-01T01:03:14.943Z,0
2016-10-01T01:04:14.960Z,0
2016-10-01T01:05:15.000Z,0
2016-10-01T01:06:14.997Z,0
2016-10-01T01:07:15.017Z,0
2016-10-01T01:08:15.038Z,0
2016-10-01T01:09:15.060Z,0
2016-10-01T01:10:15.075Z,0
2016-10-01T01:11:15.089Z,0
2016-10-01T01:12:15.122Z,0
2016-10-01T01:13:15.143Z,0
2016-10-01T01:14:15.151Z,0
2016-10-01T01:15:15.163Z,0
2016-10-01T01:16:15.165Z,0
2016-10-01T01:17:15.263Z,0
2016-10-01T01:18:15.227Z,0
2016-10-01T01:19:15.288Z,0
2016-10-01T01:20:15.249Z,0
2016-10-01T01:21:15.365Z,0
2016-10-01T01:22:15.296Z,0
2016-10-01T01:23:15.356Z,0
2016-10-01T01:24:15.325Z,0
2016-10-01T01:25:15.412Z,0
2016-10-01T01:26:15.376Z,0
2016-10-01T01:27:15.444Z,0
2016-10-01T01:28:15.403Z,0
2016-10-01T01:29:15.467Z,0
2016-10-01T01:30:15.452Z,0
2016-10-01T01:31:15.465Z,0
2016-10-01T01:32:15.486Z,0
2016-10-01T01:33:15.509Z,0
2016-10-01T01:34:15.521Z,0
2016-10-01T01:35:15.555Z,0
2016-10-01T01:36:15.567Z,0
2016-10-01T01:37:15.586Z,0
2016-10-01T01:38:15.592Z,0
2016-10-01T01:39:15.618Z,0
2016-10-01T01:40:15.637Z,0
2016-10-01T01:41:15.655Z,0
2016-10-01T01:42:15.662Z,0
2016-10-01T01:43:15.692Z,0
2016-10-01T01:44:15.706Z,0
2016-10-01T01:45:15.720Z,0
2016-10-01T01:46:15.738Z,0
2016-10-01T01:47:15.759Z,0
2016-10-01T01:48:15.781Z,0
2016-10-01T01:49:15.791Z,0
2016-10-01T01:50:15.832Z,0
2016-10-01T01:51:15.849Z,0
2016-10-01T01:52:15.865Z,0
2016-10-01T01:53:15.881Z,0
2016-10-01T01:54:15.898Z,0
2016-10-01T01:55:15.892Z,0
2016-10-01T01:56:15.913Z,0
2016-10-01T01:57:15.937Z,0
2016-10-01T01:58:15.978Z,0
2016-10-01T01:59:15.991Z,0
2016-10-01T02:00:16.001Z,0
2016-10-01T02:01:16.022Z,0
2016-10-01T02:02:16.028Z,0
2016-10-01T02:03:16.046Z,0
2016-10-01T02:04:16.057Z,0
2016-10-01T02:05:16.079Z,0
2016-10-01T02:06:16.128Z,0
2016-10-01T02:07:16.120Z,0
2016-10-01T02:08:16.142Z,0
2016-10-01T02:09:16.162Z,0
2016-10-01T02:10:16.180Z,0
2016-10-01T02:11:16.196Z,0
2016-10-01T02:12:16.225Z,0
2016-10-01T02:13:16.247Z,0
2016-10-01T02:14:16.278Z,0
2016-10-01T02:15:16.272Z,0
2016-10-01T02:16:16.311Z,0
2016-10-01T02:17:16.330Z,0
2016-10-01T02:18:16.341Z,0
2016-10-01T02:19:16.350Z,0
2016-10-01T02:20:16.365Z,0
2016-10-01T02:21:16.379Z,0
2016-10-01T02:22:16.400Z,0
2016-10-01T02:23:16.419Z,0
2016-10-01T02:24:16.448Z,0
2016-10-01T02:25:16.455Z,0
2016-10-01T02:26:16.482Z,0
2016-10-01T02:27:16.506Z,0
2016-10-01T02:28:16.518Z,0
2016-10-01T02:29:16.537Z,0
2016-10-01T02:30:16.548Z,0
2016-10-01T02:31:16.567Z,0
2016-10-01T02:32:16.586Z,0
2016-10-01T02:33:16.592Z,0
2016-10-01T02:34:16.620Z,0
2016-10-01T02:35:16.648Z,0
2016-10-01T02:36:16.655Z,0
2016-10-01T02:37:16.667Z,0
2016-10-01T02:38:16.702Z,0
2016-10-01T02:39:16.717Z,0
2016-10-01T02:40:16.726Z,0
2016-10-01T02:41:16.762Z,0
2016-10-01T02:42:16.784Z,0
2016-10-01T02:43:16.792Z,0
2016-10-01T02:44:16.809Z,0
2016-10-01T02:45:16.829Z,0
2016-10-01T02:46:16.852Z,0
2016-10-01T02:47:16.868Z,0
2016-10-01T02:48:16.882Z,0
2016-10-01T02:49:16.904Z,0
2016-10-01T02:50:16.911Z,0
2016-10-01T02:51:16.932Z,0
2016-10-01T02:52:16.967Z,0
2016-10-01T02:53:16.980Z,0
2016-10-01T02:54:17.001Z,0
2016-10-01T02:55:17.012Z,0
2016-10-01T02:56:17.031Z,0
2016-10-01T02:57:17.063Z,0
2016-10-01T02:58:17.073Z,0
2016-10-01T02:59:17.086Z,0
2016-10-01T03:00:17.111Z,0
2016-10-01T03:01:17.116Z,0
2016-10-01T03:02:17.126Z,0
2016-10-01T03:03:17.162Z,0
2016-10-01T03:04:17.163Z,0
2016-10-01T03:05:17.187Z,0
2016-10-01T03:06:17.214Z,0
2016-10-01T03:07:17.231Z,0
2016-10-01T03:08:17.251Z,0
2016-10-01T03:09:17.285Z,0
2016-10-01T03:10:17.297Z,0
2016-10-01T03:11:17.289Z,0
2016-10-01T03:12:17.338Z,0
2016-10-01T03:13:17.353Z,0
2016-10-01T03:14:17.357Z,0
2016-10-01T03:15:17.386Z,0
2016-10-01T03:16:17.390Z,0
2016-10-01T03:17:17.403Z,0
2016-10-01T03:18:17.759Z,0
2016-10-01T03:19:17.787Z,0
2016-10-01T03:20:17.477Z,0
2016-10-01T03:21:17.487Z,0
2016-10-01T03:22:17.513Z,0
2016-10-01T03:23:17.528Z,0
2016-10-01T03:24:17.545Z,0
2016-10-01T03:25:17.562Z,0
2016-10-01T03:26:17.587Z,0
2016-10-01T03:27:17.600Z,0
2016-10-01T03:28:17.631Z,0
2016-10-01T03:29:17.634Z,0
2016-10-01T03:30:17.647Z,0
2016-10-01T03:31:17.660Z,0
2016-10-01T03:32:17.689Z,0
2016-10-01T03:33:17.718Z,0
2016-10-01T03:34:17.723Z,0
2016-10-01T03:35:17.749Z,0
2016-10-01T03:36:17.768Z,0
2016-10-01T03:37:17.787Z,0
2016-10-01T03:38:17.800Z,0
2016-10-01T03:39:17.812Z,0
2016-10-01T03:40:17.849Z,0
2016-10-01T03:41:17.847Z,0
2016-10-01T03:42:17.866Z,0
2016-10-01T03:43:17.884Z,0
2016-10-01T03:44:17.892Z,0
2016-10-01T03:45:17.920Z,0
2016-10-01T03:46:17.954Z,0
2016-10-01T03:47:17.961Z,0
2016-10-01T03:48:17.988Z,0
2016-10-01T03:49:18.002Z,0
2016-10-01T03:50:18.023Z,0
2016-10-01T03:51:18.033Z,0
2016-10-01T03:52:18.056Z,0
2016-10-01T03:53:18.074Z,0
2016-10-01T03:54:18.091Z,0
2016-10-01T03:55:18.096Z,0
2016-10-01T03:56:18.135Z,0
2016-10-01T03:57:18.164Z,0
2016-10-01T03:58:18.167Z,0
2016-10-01T03:59:18.174Z,0
2016-10-01T04:01:18.191Z,0
2016-10-01T04:02:18.225Z,0
2016-10-01T04:03:18.230Z,0
2016-10-01T04:04:18.278Z,0
2016-10-01T04:05:18.285Z,0
2016-10-01T04:06:18.284Z,0
2016-10-01T04:07:18.309Z,0
2016-10-01T04:08:18.335Z,0
2016-10-01T04:09:18.358Z,0
2016-10-01T04:10:18.351Z,0
2016-10-01T04:11:18.401Z,0
2016-10-01T04:12:18.394Z,0
2016-10-01T04:13:18.430Z,0
2016-10-01T04:14:18.428Z,0
2016-10-01T04:15:18.464Z,0
2016-10-01T04:16:18.504Z,0
2016-10-01T04:17:18.499Z,0
2016-10-01T04:18:18.509Z,0
2016-10-01T04:19:18.521Z,0
2016-10-01T04:20:18.557Z,0
2016-10-01T04:21:18.574Z,0
2016-10-01T04:22:18.586Z,0
2016-10-01T04:23:18.589Z,0
2016-10-01T04:24:18.629Z,0
2016-10-01T04:25:18.642Z,0
2016-10-01T04:26:18.684Z,0
2016-10-01T04:27:18.670Z,0
2016-10-01T04:28:18.685Z,0
2016-10-01T04:29:18.695Z,0
2016-10-01T04:30:18.726Z,0
2016-10-01T04:31:18.736Z,0
2016-10-01T04:32:18.784Z,0
2016-10-01T04:33:18.776Z,0
2016-10-01T04:34:18.808Z,0
2016-10-01T04:35:18.834Z,0
2016-10-01T04:36:18.830Z,0
2016-10-01T04:37:18.848Z,0
2016-10-01T04:38:18.876Z,0
2016-10-01T04:39:18.885Z,0
2016-10-01T04:40:18.921Z,0
2016-10-01T04:41:18.930Z,0
2016-10-01T04:42:18.935Z,0
2016-10-01T04:43:18.967Z,0
2016-10-01T04:44:18.980Z,0
2016-10-01T04:45:18.998Z,0
2016-10-01T04:46:19.029Z,0
2016-10-01T04:47:19.034Z,0
2016-10-01T04:48:19.062Z,0
2016-10-01T04:49:19.083Z,0
2016-10-01T04:50:19.099Z,0
2016-10-01T04:51:19.104Z,0
2016-10-01T04:52:19.130Z,0
2016-10-01T04:53:19.159Z,0
2016-10-01T04:54:19.166Z,0
2016-10-01T04:55:19.196Z,0
2016-10-01T04:56:19.224Z,0
2016-10-01T04:57:19.200Z,0
2016-10-01T04:58:19.234Z,0
2016-10-01T04:59:19.259Z,0
2016-10-01T05:00:19.277Z,0
2016-10-01T05:01:19.308Z,0
2016-10-01T05:02:19.334Z,0
2016-10-01T05:03:19.339Z,0
2016-10-01T05:04:19.339Z,4
2016-10-01T05:05:19.358Z,4
2016-10-01T05:06:19.382Z,4
2016-10-01T05:07:19.408Z,0
2016-10-01T05:08:19.418Z,4
2016-10-01T05:09:19.434Z,8
2016-10-01T05:10:19.466Z,4
2016-10-01T05:11:19.468Z,8
2016-10-01T05:12:19.499Z,12
2016-10-01T05:13:19.505Z,12
2016-10-01T05:14:19.861Z,16
2016-10-01T05:15:19.553Z,16
2016-10-01T05:16:19.565Z,20
2016-10-01T05:17:19.582Z,24
2016-10-01T05:18:19.608Z,24
2016-10-01T05:19:19.612Z,32
2016-10-01T05:20:19.964Z,36
2016-10-01T05:21:19.667Z,40
2016-10-01T05:22:19.674Z,40
2016-10-01T05:23:19.696Z,48
2016-10-01T05:24:19.721Z,52
2016-10-01T05:25:19.730Z,56
2016-10-01T05:26:19.747Z,60
2016-10-01T05:27:19.769Z,60
2016-10-01T05:28:19.774Z,64
2016-10-01T05:29:19.816Z,64
2016-10-01T05:30:19.828Z,68
2016-10-01T05:31:19.855Z,68
2016-10-01T05:32:19.867Z,68
2016-10-01T05:33:19.885Z,72
2016-10-01T05:34:19.872Z,76
2016-10-01T05:35:19.922Z,80
2016-10-01T05:36:19.953Z,84
2016-10-01T05:37:19.950Z,92
2016-10-01T05:38:19.976Z,100
2016-10-01T05:39:19.995Z,108
2016-10-01T05:40:19.996Z,116
2016-10-01T05:41:20.019Z,132
2016-10-01T05:42:20.037Z,144
2016-10-01T05:43:20.070Z,152
2016-10-01T05:44:20.066Z,160
2016-10-01T05:45:20.091Z,164
2016-10-01T05:46:20.122Z,164
2016-10-01T05:47:20.445Z,168
2016-10-01T05:48:20.162Z,172
2016-10-01T05:49:20.173Z,176
2016-10-01T05:50:20.184Z,176
2016-10-01T05:51:20.204Z,184
2016-10-01T05:52:20.213Z,196
2016-10-01T05:53:20.231Z,204
2016-10-01T05:54:20.579Z,212
2016-10-01T05:55:20.292Z,220
2016-10-01T05:56:20.633Z,228
2016-10-01T05:57:20.330Z,240
2016-10-01T05:58:20.317Z,248
2016-10-01T05:59:20.347Z,260
2016-10-01T06:00:20.374Z,272
2016-10-01T06:01:20.385Z,276
2016-10-01T06:02:20.401Z,292
2016-10-01T06:03:20.421Z,300
2016-10-01T06:04:20.429Z,316
2016-10-01T06:05:20.463Z,328
2016-10-01T06:06:20.490Z,332
2016-10-01T06:07:20.480Z,340
2016-10-01T06:08:20.520Z,344
2016-10-01T06:09:20.523Z,348
2016-10-01T06:10:20.539Z,352
2016-10-01T06:11:20.892Z,368
2016-10-01T06:12:20.591Z,380
2016-10-01T06:13:20.597Z,396
2016-10-01T06:14:20.635Z,412
2016-10-01T06:15:20.644Z,420
2016-10-01T06:16:20.660Z,432
2016-10-01T06:17:20.683Z,440
2016-10-01T06:18:20.702Z,444
2016-10-01T06:19:20.715Z,444
2016-10-01T06:20:20.749Z,436
2016-10-01T06:21:20.755Z,428
2016-10-01T06:22:20.776Z,424
2016-10-01T06:23:20.805Z,432
2016-10-01T06:24:20.808Z,448
2016-10-01T06:25:20.829Z,468
2016-10-01T06:26:20.842Z,492
2016-10-01T06:27:20.847Z,516
2016-10-01T06:28:20.885Z,552
2016-10-01T06:29:20.901Z,588
2016-10-01T06:30:20.915Z,624
2016-10-01T06:31:20.926Z,660
2016-10-01T06:32:20.973Z,708
2016-10-01T06:33:20.983Z,760
2016-10-01T06:34:20.981Z,820
2016-10-01T06:35:21.012Z,880
2016-10-01T06:36:21.036Z,948
2016-10-01T06:37:21.046Z,1020
2016-10-01T06:38:21.067Z,1088
2016-10-01T06:39:21.082Z,1144
2016-10-01T06:40:21.123Z,1192
2016-10-01T06:41:21.121Z,1232
2016-10-01T06:42:21.129Z,1260
2016-10-01T06:43:21.161Z,1288
2016-10-01T06:44:21.157Z,1312
2016-10-01T06:45:21.178Z,1324
2016-10-01T06:46:21.229Z,1344
2016-10-01T06:47:21.234Z,1352
2016-10-01T06:48:21.257Z,1360
2016-10-01T06:49:21.278Z,1368
2016-10-01T06:50:21.267Z,1376
2016-10-01T06:51:21.289Z,1372
2016-10-01T06:52:21.328Z,1368
2016-10-01T06:53:21.325Z,1348
2016-10-01T06:54:21.357Z,1316
2016-10-01T06:55:21.381Z,1280
2016-10-01T06:56:21.401Z,1228
2016-10-01T06:57:21.416Z,1184
2016-10-01T06:58:21.424Z,1128
2016-10-01T06:59:21.438Z,1092
2016-10-01T07:00:21.464Z,1088
2016-10-01T07:01:21.476Z,1092
2016-10-01T07:02:21.505Z,1108
2016-10-01T07:03:21.503Z,1120
2016-10-01T07:04:21.534Z,1156
2016-10-01T07:05:21.553Z,1208
2016-10-01T07:06:21.567Z,1268
2016-10-01T07:07:21.588Z,1316
2016-10-01T07:08:21.616Z,1344
2016-10-01T07:09:21.636Z,1352
2016-10-01T07:10:21.647Z,1348
2016-10-01T07:11:21.670Z,1332
2016-10-01T07:12:21.691Z,1324
2016-10-01T07:13:21.703Z,1320
2016-10-01T07:14:21.723Z,1320
2016-10-01T07:15:21.742Z,1332
2016-10-01T07:16:36.594Z,1368
2016-10-01T07:17:21.792Z,1392
2016-10-01T07:18:21.779Z,1424
2016-10-01T07:19:21.808Z,1452
2016-10-01T07:20:21.835Z,1476
2016-10-01T07:21:21.858Z,1500
2016-10-01T07:22:21.886Z,1532
2016-10-01T07:23:21.898Z,1556
2016-10-01T07:24:21.902Z,1552
2016-10-01T07:25:21.927Z,1552
2016-10-01T07:26:21.957Z,1572
2016-10-01T07:27:21.970Z,1596
2016-10-01T07:28:21.972Z,1612
2016-10-01T07:29:22.005Z,1624
2016-10-01T07:30:22.004Z,1632
2016-10-01T07:31:22.033Z,1632
2016-10-01T07:32:22.063Z,1620
2016-10-01T07:33:22.068Z,1628
2016-10-01T07:34:22.082Z,1668
2016-10-01T07:35:22.121Z,1708
2016-10-01T07:36:22.142Z,1756
2016-10-01T07:37:22.150Z,1804
2016-10-01T07:38:22.172Z,1856
2016-10-01T07:39:22.183Z,1896
2016-10-01T07:40:22.200Z,1940
2016-10-01T07:41:22.221Z,1984
2016-10-01T07:42:22.229Z,2016
2016-10-01T07:43:22.262Z,2040
2016-10-01T07:44:22.265Z,2044
2016-10-01T07:45:22.299Z,2036
2016-10-01T07:46:22.307Z,2036
2016-10-01T07:47:22.337Z,2036
2016-10-01T07:48:22.368Z,2048
2016-10-01T07:49:22.375Z,2068
2016-10-01T07:50:22.400Z,2056
2016-10-01T07:51:22.422Z,2012
2016-10-01T07:52:22.437Z,1936
2016-10-01T07:53:22.438Z,1852
2016-10-01T07:54:22.459Z,1800
2016-10-01T07:55:22.483Z,1768
2016-10-01T07:56:22.493Z,1744
2016-10-01T07:57:22.514Z,1716
2016-10-01T07:58:22.541Z,1680
2016-10-01T07:59:22.565Z,1616
2016-10-01T08:00:22.571Z,1544
2016-10-01T08:01:22.601Z,1488
2016-10-01T08:02:22.610Z,1452
2016-10-01T08:03:22.627Z,1436
2016-10-01T08:04:22.657Z,1424
2016-10-01T08:05:22.692Z,1428
2016-10-01T08:06:22.689Z,1408
2016-10-01T08:07:22.693Z,1396
2016-10-01T08:08:22.727Z,1388
2016-10-01T08:09:22.743Z,1408
2016-10-01T08:10:22.770Z,1436
2016-10-01T08:11:22.782Z,1456
2016-10-01T08:12:22.806Z,1480
2016-10-01T08:13:22.827Z,1524
2016-10-01T08:14:22.849Z,1552
2016-10-01T08:15:22.868Z,1552
2016-10-01T08:16:22.867Z,1528
2016-10-01T08:17:22.889Z,1504
2016-10-01T08:18:22.926Z,1464
2016-10-01T08:19:22.938Z,1408
2016-10-01T08:20:22.932Z,1364
2016-10-01T08:21:22.956Z,1364
2016-10-01T08:22:23.014Z,1372
2016-10-01T08:23:23.005Z,1388
2016-10-01T08:24:23.040Z,1436
2016-10-01T08:25:23.066Z,1496
2016-10-01T08:26:23.058Z,1532
2016-10-01T08:27:23.080Z,1556
2016-10-01T08:28:23.101Z,1576
2016-10-01T08:29:23.129Z,1580
2016-10-01T08:30:23.145Z,1632
2016-10-01T08:31:23.167Z,1732
2016-10-01T08:32:23.174Z,1852
2016-10-01T08:33:23.201Z,1968
2016-10-01T08:34:23.230Z,2052
2016-10-01T08:35:23.235Z,2084
2016-10-01T08:36:23.260Z,2076
2016-10-01T08:37:23.269Z,2064
2016-10-01T08:38:23.295Z,2084
2016-10-01T08:39:23.297Z,2156
2016-10-01T08:40:23.328Z,2224
2016-10-01T08:41:23.354Z,2244
2016-10-01T08:42:23.372Z,2244
2016-10-01T08:43:23.387Z,2248
2016-10-01T08:44:23.427Z,2272
2016-10-01T08:45:23.431Z,2316
2016-10-01T08:46:23.457Z,2384
2016-10-01T08:47:23.465Z,2484
2016-10-01T08:48:23.485Z,2616
2016-10-01T08:49:23.487Z,2744
2016-10-01T08:50:23.523Z,2852
2016-10-01T08:51:23.543Z,2940
2016-10-01T08:52:23.573Z,3012
2016-10-01T08:53:23.577Z,3104
2016-10-01T08:54:23.607Z,3232
2016-10-01T08:55:23.603Z,3392
2016-10-01T08:56:23.640Z,3552
2016-10-01T08:57:23.664Z,3688
2016-10-01T08:58:23.700Z,3796
2016-10-01T08:59:23.686Z,3884
2016-10-01T09:00:23.703Z,3940
2016-10-01T09:01:23.711Z,3968
2016-10-01T09:02:23.765Z,3976
2016-10-01T09:03:23.761Z,3968
2016-10-01T09:04:23.800Z,3972
2016-10-01T09:05:23.801Z,3888
2016-10-01T09:06:23.833Z,3696
2016-10-01T09:07:23.840Z,3544
2016-10-01T09:08:23.865Z,3408
2016-10-01T09:09:23.863Z,3248
2016-10-01T09:10:23.908Z,3088
2016-10-01T09:11:23.923Z,2992
2016-10-01T09:12:23.947Z,2932
2016-10-01T09:13:23.962Z,2884
2016-10-01T09:14:23.979Z,2940
2016-10-01T09:15:24.003Z,3020
2016-10-01T09:16:24.028Z,3144
2016-10-01T09:17:24.027Z,3244
2016-10-01T09:18:24.064Z,3264
2016-10-01T09:19:24.072Z,3176
2016-10-01T09:20:24.082Z,3052
2016-10-01T09:21:24.129Z,2884
2016-10-01T09:22:24.126Z,2660
2016-10-01T09:23:24.150Z,2540
2016-10-01T09:24:24.177Z,2452
2016-10-01T09:25:24.202Z,2448
2016-10-01T09:26:24.227Z,2476
2016-10-01T09:27:24.226Z,2472
2016-10-01T09:28:24.257Z,2480
2016-10-01T09:29:24.271Z,2520
2016-10-01T09:30:24.307Z,2536
2016-10-01T09:31:24.313Z,2552
2016-10-01T09:32:24.325Z,2564
2016-10-01T09:33:24.347Z,2568
2016-10-01T09:34:24.390Z,2564
2016-10-01T09:35:24.393Z,2600
2016-10-01T09:36:24.401Z,2624
2016-10-01T09:37:24.426Z,2644
2016-10-01T09:38:24.438Z,2656
2016-10-01T09:39:24.446Z,2712
2016-10-01T09:40:24.481Z,2800
2016-10-01T09:41:24.515Z,2880
2016-10-01T09:42:24.517Z,2920
2016-10-01T09:43:24.545Z,2892
2016-10-01T09:44:24.841Z,2828
2016-10-01T09:45:24.576Z,2756
2016-10-01T09:46:24.915Z,2744
2016-10-01T09:47:24.625Z,2800
2016-10-01T09:48:24.639Z,2868
2016-10-01T09:49:24.673Z,2952
2016-10-01T09:50:24.680Z,3044
2016-10-01T09:51:24.688Z,3148
2016-10-01T09:52:24.713Z,3240
2016-10-01T09:53:24.730Z,3316
2016-10-01T09:54:24.762Z,3392
2016-10-01T09:55:24.784Z,3436
2016-10-01T09:56:24.802Z,3432
2016-10-01T09:57:24.824Z,3388
2016-10-01T09:58:24.823Z,3340
2016-10-01T09:59:24.854Z,3284
2016-10-01T10:00:24.882Z,3240
2016-10-01T10:01:24.872Z,3144
2016-10-01T10:02:24.907Z,3000
2016-10-01T10:03:24.911Z,2884
2016-10-01T10:04:24.936Z,2860
2016-10-01T10:05:24.975Z,2904
2016-10-01T10:06:24.995Z,2980
2016-10-01T10:07:24.994Z,3004
2016-10-01T10:08:25.026Z,2920
2016-10-01T10:09:25.048Z,2852
2016-10-01T10:10:25.070Z,2620
2016-10-01T10:11:25.078Z,2592
2016-10-01T10:12:25.084Z,2668
2016-10-01T10:13:25.120Z,2840
2016-10-01T10:14:25.132Z,3028
2016-10-01T10:15:25.160Z,3124
2016-10-01T10:16:25.175Z,3080
2016-10-01T10:17:25.205Z,2988
2016-10-01T10:18:25.215Z,2952
2016-10-01T10:19:25.221Z,3072
2016-10-01T10:20:25.265Z,3356
2016-10-01T10:21:25.291Z,3640
2016-10-01T10:22:25.297Z,3784
2016-10-01T10:23:25.308Z,3916
2016-10-01T10:24:25.338Z,4256
2016-10-01T10:25:25.344Z,4732
2016-10-01T10:26:25.374Z,5100
2016-10-01T10:27:25.375Z,5144
2016-10-01T10:28:25.430Z,4788
2016-10-01T10:29:25.437Z,4192
2016-10-01T10:30:25.456Z,3584
2016-10-01T10:31:25.456Z,3108
2016-10-01T10:32:25.485Z,2896
2016-10-01T10:33:25.502Z,2824
2016-10-01T10:34:25.509Z,2828
2016-10-01T10:35:25.541Z,2808
2016-10-01T10:36:25.561Z,2748
2016-10-01T10:37:25.596Z,2688
2016-10-01T10:38:25.605Z,2732
2016-10-01T10:39:25.620Z,2864
2016-10-01T10:40:25.628Z,3064
2016-10-01T10:41:25.634Z,3300
2016-10-01T10:42:25.677Z,3456
2016-10-01T10:43:25.704Z,3512
2016-10-01T10:44:25.715Z,3520
2016-10-01T10:45:25.754Z,3596
2016-10-01T10:46:25.757Z,3768
2016-10-01T10:47:25.772Z,3944
2016-10-01T10:48:25.804Z,3924
2016-10-01T10:49:25.822Z,3540
2016-10-01T10:50:25.845Z,2884
2016-10-01T10:51:25.863Z,2248
2016-10-01T10:52:25.862Z,1852
2016-10-01T10:53:25.902Z,1784
2016-10-01T10:54:25.905Z,1924
2016-10-01T10:55:25.950Z,2208
2016-10-01T10:56:26.006Z,2520
2016-10-01T10:57:25.971Z,2884
2016-10-01T10:58:25.990Z,3224
2016-10-01T10:59:26.012Z,3340
2016-10-01T11:00:26.036Z,3244
2016-10-01T11:01:26.042Z,3128
2016-10-01T11:02:26.085Z,3020
2016-10-01T11:03:26.093Z,2928
2016-10-01T11:04:26.121Z,2908
2016-10-01T11:05:26.124Z,2932
2016-10-01T11:06:26.149Z,3024
2016-10-01T11:07:26.169Z,3176
2016-10-01T11:08:26.187Z,3344
2016-10-01T11:09:26.216Z,3520
2016-10-01T11:10:26.220Z,3696
2016-10-01T11:11:26.244Z,3912
2016-10-01T11:12:26.251Z,4204
2016-10-01T11:13:26.276Z,4552
2016-10-01T11:14:26.310Z,4952
2016-10-01T11:15:26.327Z,5320
2016-10-01T11:16:26.339Z,5524
2016-10-01T11:17:26.363Z,5512
2016-10-01T11:18:26.370Z,5296
2016-10-01T11:19:26.390Z,5132
2016-10-01T11:20:26.430Z,5100
2016-10-01T11:21:26.436Z,5076
2016-10-01T11:22:26.460Z,5000
2016-10-01T11:23:26.484Z,4836
2016-10-01T11:24:26.517Z,4728
2016-10-01T11:25:26.542Z,4704
2016-10-01T11:26:26.536Z,4736
2016-10-01T11:27:26.566Z,4700
2016-10-01T11:28:26.568Z,4560
2016-10-01T11:29:26.628Z,4416
2016-10-01T11:30:26.618Z,4380
2016-10-01T11:31:26.635Z,4488
2016-10-01T11:32:26.669Z,4736
2016-10-01T11:33:26.668Z,5028
2016-10-01T11:34:26.717Z,5236
2016-10-01T11:35:26.711Z,5252
2016-10-01T11:36:26.744Z,4964
2016-10-01T11:37:26.758Z,4588
2016-10-01T11:38:26.784Z,4400
2016-10-01T11:39:26.796Z,4440
2016-10-01T11:40:26.825Z,4552
2016-10-01T11:41:26.835Z,4712
2016-10-01T11:42:26.858Z,4836
2016-10-01T11:43:26.881Z,4860
2016-10-01T11:44:26.909Z,4828
2016-10-01T11:45:26.911Z,4908
2016-10-01T11:46:26.943Z,5108
2016-10-01T11:47:26.959Z,5268
2016-10-01T11:48:26.969Z,5364
2016-10-01T11:49:27.003Z,5372
2016-10-01T11:50:27.012Z,5312
2016-10-01T11:51:27.044Z,5196
2016-10-01T11:52:27.055Z,5020
2016-10-01T11:53:27.096Z,4868
2016-10-01T11:54:27.088Z,4792
2016-10-01T11:55:27.137Z,4772
2016-10-01T11:56:27.136Z,4732
2016-10-01T11:57:27.158Z,4664
2016-10-01T11:58:27.184Z,4520
2016-10-01T11:59:27.203Z,4332
2016-10-01T12:00:27.241Z,4172
2016-10-01T12:01:27.223Z,4048
2016-10-01T12:02:27.261Z,3920
2016-10-01T12:03:27.283Z,3988
2016-10-01T12:04:27.297Z,4344
2016-10-01T12:05:27.318Z,4764
2016-10-01T12:06:27.354Z,5068
2016-10-01T12:07:27.352Z,5176
2016-10-01T12:08:27.378Z,5200
2016-10-01T12:09:27.405Z,5312
2016-10-01T12:10:27.437Z,5508
2016-10-01T12:11:27.463Z,5796
2016-10-01T12:12:27.489Z,6192
2016-10-01T12:13:27.497Z,6608
2016-10-01T12:14:27.514Z,6816
2016-10-01T12:15:27.512Z,6916
2016-10-01T12:16:27.540Z,6968
2016-10-01T12:17:27.562Z,7004
2016-10-01T12:18:27.581Z,6924
2016-10-01T12:19:27.598Z,6668
2016-10-01T12:20:27.624Z,6180
2016-10-01T12:21:27.640Z,5600
2016-10-01T12:22:27.664Z,5192
2016-10-01T12:23:27.680Z,5056
2016-10-01T12:24:27.710Z,5144
2016-10-01T12:25:27.719Z,5352
2016-10-01T12:26:27.747Z,5500
2016-10-01T12:27:27.770Z,5480
2016-10-01T12:28:27.792Z,5364
2016-10-01T12:29:27.797Z,5168
2016-10-01T12:30:27.826Z,4960
2016-10-01T12:31:27.850Z,4772
2016-10-01T12:32:27.868Z,4608
2016-10-01T12:33:27.880Z,4516
2016-10-01T12:34:27.899Z,4564
2016-10-01T12:35:27.939Z,4664
2016-10-01T12:36:27.963Z,4852
2016-10-01T12:37:27.972Z,5224
2016-10-01T12:38:27.990Z,5624
2016-10-01T12:39:28.023Z,5820
2016-10-01T12:40:28.050Z,5920
2016-10-01T12:41:28.047Z,5868
2016-10-01T12:42:28.071Z,5584
2016-10-01T12:43:28.098Z,5096
2016-10-01T12:44:28.117Z,4520
2016-10-01T12:45:28.123Z,4028
2016-10-01T12:46:28.160Z,3776
2016-10-01T12:47:28.181Z,3816
2016-10-01T12:48:28.198Z,4012
2016-10-01T12:49:28.219Z,4400
2016-10-01T12:50:28.239Z,4716
2016-10-01T12:51:28.253Z,4732
2016-10-01T12:52:28.291Z,4552
2016-10-01T12:53:28.312Z,4340
2016-10-01T12:54:28.329Z,4144
2016-10-01T12:55:28.352Z,3876
2016-10-01T12:56:28.363Z,3572
2016-10-01T12:57:28.390Z,3400
2016-10-01T12:58:28.419Z,3396
2016-10-01T12:59:28.417Z,3528
2016-10-01T13:00:28.453Z,3720
2016-10-01T13:01:28.450Z,4172
2016-10-01T13:02:28.482Z,4800
2016-10-01T13:03:28.511Z,5240
2016-10-01T13:04:28.535Z,5324
2016-10-01T13:05:28.547Z,5088
2016-10-01T13:06:28.563Z,4484
2016-10-01T13:07:28.588Z,3752
2016-10-01T13:08:28.612Z,3252
2016-10-01T13:09:28.643Z,3036
2016-10-01T13:10:28.648Z,2964
2016-10-01T13:11:28.666Z,2876
2016-10-01T13:12:28.695Z,2720
2016-10-01T13:13:28.713Z,2616
2016-10-01T13:14:28.746Z,2684
2016-10-01T13:15:28.735Z,2784
2016-10-01T13:16:28.774Z,2840
2016-10-01T13:17:28.794Z,2840
2016-10-01T13:18:28.810Z,2820
2016-10-01T13:19:28.818Z,2760
2016-10-01T13:20:28.851Z,2660
2016-10-01T13:21:28.869Z,2556
2016-10-01T13:22:28.906Z,2524
2016-10-01T13:23:28.915Z,2652
2016-10-01T13:24:28.938Z,2952
2016-10-01T13:25:28.984Z,3140
2016-10-01T13:26:28.973Z,3124
2016-10-01T13:27:28.981Z,3064
2016-10-01T13:28:29.026Z,3104
2016-10-01T13:29:29.029Z,3344
2016-10-01T13:30:29.073Z,3684
2016-10-01T13:31:29.074Z,3964
2016-10-01T13:32:29.092Z,4232
2016-10-01T13:33:29.119Z,4496
2016-10-01T13:34:29.150Z,5004
2016-10-01T13:35:29.155Z,5428
2016-10-01T13:36:29.191Z,5620
2016-10-01T13:37:29.204Z,5616
2016-10-01T13:38:29.224Z,5460
2016-10-01T13:39:29.240Z,5352
2016-10-01T13:40:29.270Z,5520
2016-10-01T13:41:29.281Z,5964
2016-10-01T13:42:29.308Z,6312
2016-10-01T13:43:29.330Z,6548
2016-10-01T13:44:29.325Z,6780
2016-10-01T13:45:29.369Z,7000
2016-10-01T13:46:29.376Z,7168
2016-10-01T13:47:29.419Z,6680
2016-10-01T13:48:29.419Z,6244
2016-10-01T13:49:29.452Z,5732
2016-10-01T13:50:29.474Z,5196
2016-10-01T13:51:29.482Z,4740
2016-10-01T13:52:29.516Z,4356
2016-10-01T13:53:29.529Z,4036
2016-10-01T13:54:29.558Z,3772